This is the latest recevied weather packets stored in our database for station/object LZ3DJ-10. If no packets are shown the sender has not sent any weather packets the latest 10 day(s).
| Time | Temp. | Humidity | Pressure | Rain* | Wind** | Luminosity | Snow |
|---|---|---|---|---|---|---|---|
| 1787578206 | 23.89° C | 80% | 1014.8 hPa | 7.11 mm | 1.34 m/s, 343° | - | - |
| 1787577305 | 30.56° C | 45% | 1010.5 hPa | 0 mm | 0.45 m/s, 328° | - | - |
| 1787576406 | 32.22° C | 44% | 1009.8 hPa | 0 mm | 0.45 m/s, 85° | - | - |
| 1787575505 | 32.78° C | 43% | 1009.7 hPa | 0 mm | 0 m/s | - | - |
| 1787574606 | 33.33° C | 42% | 1009.8 hPa | 0 mm | 0 m/s | - | - |
| 1787573706 | 35.56° C | 39% | 1009.6 hPa | 0 mm | 0 m/s | - | - |
| 1787572805 | 32.78° C | 44% | 1010.5 hPa | 0 mm | 0 m/s | - | - |
| 1787571906 | 33.33° C | 43% | 1010.6 hPa | 0 mm | 0 m/s | - | - |
| 1787571005 | 32.22° C | 45% | 1011 hPa | 0 mm | 0 m/s | - | - |
| 1787570106 | 32.22° C | 43% | 1011 hPa | 0 mm | 0 m/s | - | - |
| 1787569206 | 32.22° C | 43% | 1011.2 hPa | 0 mm | 0.89 m/s, 136° | - | - |
| 1787568305 | 31.67° C | 45% | 1011.5 hPa | 0 mm | 1.34 m/s, 134° | - | - |
| 1787567406 | 31.67° C | 45% | 1011.6 hPa | 0 mm | 0.45 m/s, 325° | - | - |
| 1787566506 | 33.89° C | 42% | 1011.4 hPa | 0 mm | 0 m/s | - | - |
| 1787565605 | 33.33° C | 43% | 1011.7 hPa | 0 mm | 0 m/s | - | - |
| 1787564706 | 32.78° C | 44% | 1012 hPa | 0 mm | 0 m/s | - | - |
| 1787563806 | 31.67° C | 46% | 1012.4 hPa | 0 mm | 0 m/s | - | - |
| 1787562905 | 31.67° C | 46% | 1012.6 hPa | 0 mm | 0 m/s | - | - |
| 1787562006 | 30.56° C | 48% | 1013 hPa | 0 mm | 0 m/s | - | - |
| 1787561106 | 28.33° C | 52% | 1013.5 hPa | 0 mm | 0 m/s | - | - |
| 1787560205 | 27.78° C | 53% | 1013.8 hPa | 0 mm | 0 m/s | - | - |
| 1787559306 | 27.78° C | 53% | 1019.7 hPa | 0 mm | 0.45 m/s, 142° | - | - |
| 1787558406 | 26.67° C | 56% | 1014.3 hPa | 0 mm | 0 m/s | - | - |
| 1787557506 | 26.67° C | 56% | 1014.5 hPa | 0 mm | 0 m/s | - | - |
| 1787556606 | 26.67° C | 57% | 1014.6 hPa | 0 mm | 0 m/s | - | - |
* Rain latest hour (hover to see other rain measurements)
** Current wind speed in m/s (hover to see current wind gust speed)